Terminal Aerodrome Forecast
Issued by NWS

Current Version | Previous Version | Text Only | Print | Product List | Glossary On
Versions: 1 2 3 4 5 6 7 8 9 10 11 12 13 14
000
FTUS44 KJAN 250537
TAFHKS
TAF
KHKS 250537Z 2506/2606 15005KT P6SM SKC
     FM251400 11004KT P6SM SCT030
     FM251900 12006KT P6SM VCTS SCT050CB
     FM260000 12005KT P6SM SKC=

USA.gov is the U.S. government's official web portal to all federal, state and local government web resources and services.